Scarborough — VJ6976 — position and weather

sailwx.info

Track history (hours):
 
Tides and Currents Weather Stations Pressure Air Temp Water Temp Dewpoint Dewpoint Depression Visibility Wind Speed Wind Dir Waves Ship Positions

Scarborough

Last reported at 2018-May-15 20:06 UTC. Time now 2018-May-24 23:35 UTC.
Position S 33°51' E 151°11'.
Warning: this ship's position is 9 days out of date.

Length 25 m.

Type: Passenger vessel. MMSI: 503345600.

Date/timePositionNaut miles runAvg speedWind from/ knotsBaromVisibWave heightAir tempDewpointWater temp
2018-May-15 20:06S 33°51' E 151°11'0 0.0
2018-May-15 19:53S 33°51' E 151°11'0 0.0
2018-May-15 07:46S 33°51' E 151°11'0 0.0
2018-May-15 07:18S 33°51' E 151°11'0 0.0
2018-May-13 20:47S 33°51' E 151°11'0 0.0
2018-May-13 20:28S 33°51' E 151°11'0 0.0
2018-May-13 20:00S 33°51' E 151°11'0 0.0
2018-May-13 19:30S 33°51' E 151°11'0 0.0
2018-May-13 19:00S 33°51' E 151°11'0 0.0
2018-May-13 18:27S 33°51' E 151°11'0 0.0
2018-May-13 18:00S 33°51' E 151°11'0 0.0
2018-May-13 17:30S 33°51' E 151°11'0 0.0
2018-May-13 17:00S 33°51' E 151°11'0 0.0
2018-May-13 16:30S 33°51' E 151°11'0 0.0
2018-May-13 16:00S 33°51' E 151°11'0 0.0
2018-May-13 15:30S 33°51' E 151°11'0 0.0
2018-May-13 15:00S 33°51' E 151°11'0 0.0
2018-May-13 14:30S 33°51' E 151°11'0 0.0
2018-May-13 14:00S 33°51' E 151°11'0 0.0
2018-May-13 13:26S 33°51' E 151°11'0 0.0
2018-May-13 13:00S 33°51' E 151°11'0 0.0
2018-May-13 12:28S 33°51' E 151°11'0 0.0
2018-May-13 11:58S 33°51' E 151°11'0 0.0
2018-May-13 11:11S 33°51' E 151°11'0 0.0
2018-May-13 09:51S 33°51' E 151°11'2 4.4
2018-May-13 09:29S 33°51' E 151°13'0 0.9
2018-May-13 08:59S 33°51' E 151°13'0 0.4
2018-May-13 08:29S 33°52' E 151°13'0 0.2
2018-May-13 07:51S 33°52' E 151°13'1 1.4
2018-May-13 07:26S 33°51' E 151°13'1 0.1
2018-May-12 20:18S 33°52' E 151°13'0 0.0
2018-May-12 19:52S 33°52' E 151°13'0 0.0
2018-May-12 19:25S 33°52' E 151°13'0 0.0
2018-May-12 18:40S 33°52' E 151°13'0 0.0
2018-May-12 18:29S 33°52' E 151°13'0 0.0
2018-May-12 17:19S 33°52' E 151°13'0 0.0
2018-May-12 16:54S 33°52' E 151°13'0 0.0
2018-May-12 15:27S 33°52' E 151°13'0 0.0
2018-May-12 14:20S 33°52' E 151°13'0 0.0
2018-May-12 11:53S 33°52' E 151°13'0 0.0
2018-May-12 10:37S 33°52' E 151°13'1 3.9
2018-May-12 10:14S 33°51' E 151°14'2 4.6
2018-May-12 09:55S 33°52' E 151°13'0 0.0
2018-May-12 09:26S 33°52' E 151°13'0 0.0
2018-May-12 08:47S 33°52' E 151°13'1 1.4
2018-May-12 08:06S 33°51' E 151°13'1 6.1
2018-May-12 07:57S 33°52' E 151°13'0 0.1
2018-May-12 07:27S 33°52' E 151°13'0 0.0
2018-May-12 00:53S 33°52' E 151°13'0 0.0
2018-May-11 20:06S 33°52' E 151°13'0 0.0
2018-May-11 13:34S 33°52' E 151°13'2 8.5
2018-May-11 13:24S 33°52' E 151°15'2 2.4
2018-May-11 12:43S 33°52' E 151°13'2 5.0
2018-May-11 12:23S 33°52' E 151°15'2 0.7
2018-May-11 09:48S 33°51' E 151°13'2 4.1
2018-May-11 09:21S 33°52' E 151°15'2 1.1
2018-May-11 07:44S 33°52' E 151°13'2 4.6
2018-May-11 07:21S 33°50' E 151°14'2 0.2
2018-May-10 20:33S 33°51' E 151°11'1 5.1
2018-May-10 20:20S 33°51' E 151°13'1 0.1
2018-May-10 11:55S 33°52' E 151°13'0 0.0
2018-May-10 11:22S 33°52' E 151°13'1 1.9
2018-May-10 10:59S 33°51' E 151°13'2 1.6
2018-May-10 10:02S 33°51' E 151°11'1 4.3
2018-May-10 09:47S 33°51' E 151°13'2 4.1
2018-May-10 09:24S 33°52' E 151°15'2 3.7
2018-May-10 08:59S 33°52' E 151°13'1 1.2
2018-May-10 08:03S 33°51' E 151°11'1 0.1
2018-May-09 20:19S 33°51' E 151°13'0 0.1
2018-May-09 10:49S 33°52' E 151°13'0 0.1
2018-May-09 09:45S 33°52' E 151°13'2 4.5
2018-May-09 09:23S 33°52' E 151°15'2 1.1
2018-May-09 07:49S 33°51' E 151°13'1 3.3
2018-May-09 07:28S 33°51' E 151°14'1 1.2
2018-May-09 06:20S 33°52' E 151°13'0 0.0
2018-May-08 20:21S 33°51' E 151°13'1 0.1
2018-May-08 12:45S 33°52' E 151°13'0 0.6
2018-May-08 12:04S 33°51' E 151°13'0 7.2
2018-May-08 12:01S 33°52' E 151°13'0 0.0
2018-May-08 11:26S 33°52' E 151°13'0 0.1
2018-May-08 10:46S 33°52' E 151°13'1 0.7
2018-May-08 09:52S 33°51' E 151°12'1 2.1
2018-May-08 09:30S 33°51' E 151°13'0 0.8
2018-May-08 08:59S 33°51' E 151°13'1 0.5
2018-May-08 07:51S 33°51' E 151°12'1 0.1
2018-May-07 20:27S 33°51' E 151°11'1 0.2
2018-May-07 12:38S 33°51' E 151°13'0 0.4
2018-May-07 12:04S 33°51' E 151°13'0 2.6
2018-May-07 11:55S 33°52' E 151°13'0 0.0
2018-May-07 09:45S 33°52' E 151°13'1 4.2
2018-May-07 09:24S 33°52' E 151°14'1 2.9
2018-May-07 08:57S 33°52' E 151°13'0 0.0
2018-May-07 07:44S 33°52' E 151°13'2 0.4
2018-May-07 03:32S 33°51' E 151°14'2 0.3
2018-May-06 20:22S 33°51' E 151°12'1 0.1
2018-May-06 10:30S 33°51' E 151°13'1 0.6
2018-May-06 09:11S 33°51' E 151°14'1 1.6
2018-May-06 08:21S 33°52' E 151°13'0 0.9
2018-May-06 07:49S 33°51' E 151°13'  
Track history (hours):
 
Tides and Currents Weather Stations Pressure Air Temp Water Temp Dewpoint Dewpoint Depression Visibility Wind Speed Wind Dir Waves Ship Positions

Scarborough

Last reported at 2018-May-15 20:06 UTC. Time now 2018-May-24 23:35 UTC.
Position S 33°51' E 151°11'.
Warning: this ship's position is 9 days out of date.

Length 25 m.

Type: Passenger vessel. MMSI: 503345600.

Date/timePositionNaut miles runAvg speedWind from/ knotsBaromVisibWave heightAir tempDewpointWater temp
2018-May-15 20:06S 33°51' E 151°11'0 0.0
2018-May-15 19:53S 33°51' E 151°11'0 0.0
2018-May-15 07:46S 33°51' E 151°11'0 0.0
2018-May-15 07:18S 33°51' E 151°11'0 0.0
2018-May-13 20:47S 33°51' E 151°11'0 0.0
2018-May-13 20:28S 33°51' E 151°11'0 0.0
2018-May-13 20:00S 33°51' E 151°11'0 0.0
2018-May-13 19:30S 33°51' E 151°11'0 0.0
2018-May-13 19:00S 33°51' E 151°11'0 0.0
2018-May-13 18:27S 33°51' E 151°11'0 0.0
2018-May-13 18:00S 33°51' E 151°11'0 0.0
2018-May-13 17:30S 33°51' E 151°11'0 0.0
2018-May-13 17:00S 33°51' E 151°11'0 0.0
2018-May-13 16:30S 33°51' E 151°11'0 0.0
2018-May-13 16:00S 33°51' E 151°11'0 0.0
2018-May-13 15:30S 33°51' E 151°11'0 0.0
2018-May-13 15:00S 33°51' E 151°11'0 0.0
2018-May-13 14:30S 33°51' E 151°11'0 0.0
2018-May-13 14:00S 33°51' E 151°11'0 0.0
2018-May-13 13:26S 33°51' E 151°11'0 0.0
2018-May-13 13:00S 33°51' E 151°11'0 0.0
2018-May-13 12:28S 33°51' E 151°11'0 0.0
2018-May-13 11:58S 33°51' E 151°11'0 0.0
2018-May-13 11:11S 33°51' E 151°11'0 0.0
2018-May-13 09:51S 33°51' E 151°11'2 4.4
2018-May-13 09:29S 33°51' E 151°13'0 0.9
2018-May-13 08:59S 33°51' E 151°13'0 0.4
2018-May-13 08:29S 33°52' E 151°13'0 0.2
2018-May-13 07:51S 33°52' E 151°13'1 1.4
2018-May-13 07:26S 33°51' E 151°13'1 0.1
2018-May-12 20:18S 33°52' E 151°13'0 0.0
2018-May-12 19:52S 33°52' E 151°13'0 0.0
2018-May-12 19:25S 33°52' E 151°13'0 0.0
2018-May-12 18:40S 33°52' E 151°13'0 0.0
2018-May-12 18:29S 33°52' E 151°13'0 0.0
2018-May-12 17:19S 33°52' E 151°13'0 0.0
2018-May-12 16:54S 33°52' E 151°13'0 0.0
2018-May-12 15:27S 33°52' E 151°13'0 0.0
2018-May-12 14:20S 33°52' E 151°13'0 0.0
2018-May-12 11:53S 33°52' E 151°13'0 0.0
2018-May-12 10:37S 33°52' E 151°13'1 3.9
2018-May-12 10:14S 33°51' E 151°14'2 4.6
2018-May-12 09:55S 33°52' E 151°13'0 0.0
2018-May-12 09:26S 33°52' E 151°13'0 0.0
2018-May-12 08:47S 33°52' E 151°13'1 1.4
2018-May-12 08:06S 33°51' E 151°13'1 6.1
2018-May-12 07:57S 33°52' E 151°13'0 0.1
2018-May-12 07:27S 33°52' E 151°13'0 0.0
2018-May-12 00:53S 33°52' E 151°13'0 0.0
2018-May-11 20:06S 33°52' E 151°13'0 0.0
2018-May-11 13:34S 33°52' E 151°13'2 8.5
2018-May-11 13:24S 33°52' E 151°15'2 2.4
2018-May-11 12:43S 33°52' E 151°13'2 5.0
2018-May-11 12:23S 33°52' E 151°15'2 0.7
2018-May-11 09:48S 33°51' E 151°13'2 4.1
2018-May-11 09:21S 33°52' E 151°15'2 1.1
2018-May-11 07:44S 33°52' E 151°13'2 4.6
2018-May-11 07:21S 33°50' E 151°14'2 0.2
2018-May-10 20:33S 33°51' E 151°11'1 5.1
2018-May-10 20:20S 33°51' E 151°13'1 0.1
2018-May-10 11:55S 33°52' E 151°13'0 0.0
2018-May-10 11:22S 33°52' E 151°13'1 1.9
2018-May-10 10:59S 33°51' E 151°13'2 1.6
2018-May-10 10:02S 33°51' E 151°11'1 4.3
2018-May-10 09:47S 33°51' E 151°13'2 4.1
2018-May-10 09:24S 33°52' E 151°15'2 3.7
2018-May-10 08:59S 33°52' E 151°13'1 1.2
2018-May-10 08:03S 33°51' E 151°11'1 0.1
2018-May-09 20:19S 33°51' E 151°13'0 0.1
2018-May-09 10:49S 33°52' E 151°13'0 0.1
2018-May-09 09:45S 33°52' E 151°13'2 4.5
2018-May-09 09:23S 33°52' E 151°15'2 1.1
2018-May-09 07:49S 33°51' E 151°13'1 3.3
2018-May-09 07:28S 33°51' E 151°14'1 1.2
2018-May-09 06:20S 33°52' E 151°13'0 0.0
2018-May-08 20:21S 33°51' E 151°13'1 0.1
2018-May-08 12:45S 33°52' E 151°13'0 0.6
2018-May-08 12:04S 33°51' E 151°13'0 7.2
2018-May-08 12:01S 33°52' E 151°13'0 0.0
2018-May-08 11:26S 33°52' E 151°13'0 0.1
2018-May-08 10:46S 33°52' E 151°13'1 0.7
2018-May-08 09:52S 33°51' E 151°12'1 2.1
2018-May-08 09:30S 33°51' E 151°13'0 0.8
2018-May-08 08:59S 33°51' E 151°13'1 0.5
2018-May-08 07:51S 33°51' E 151°12'1 0.1
2018-May-07 20:27S 33°51' E 151°11'1 0.2
2018-May-07 12:38S 33°51' E 151°13'0 0.4
2018-May-07 12:04S 33°51' E 151°13'0 2.6
2018-May-07 11:55S 33°52' E 151°13'0 0.0
2018-May-07 09:45S 33°52' E 151°13'1 4.2
2018-May-07 09:24S 33°52' E 151°14'1 2.9
2018-May-07 08:57S 33°52' E 151°13'0 0.0
2018-May-07 07:44S 33°52' E 151°13'2 0.4
2018-May-07 03:32S 33°51' E 151°14'2 0.3
2018-May-06 20:22S 33°51' E 151°12'1 0.1
2018-May-06 10:30S 33°51' E 151°13'1 0.6
2018-May-06 09:11S 33°51' E 151°14'1 1.6
2018-May-06 08:21S 33°52' E 151°13'0 0.9
2018-May-06 07:49S 33°51' E 151°13'  

Dump ship's entire track history